createdAt,value
2019-02-25T00:01:53.096Z,5.30
2019-02-25T00:04:20.864Z,5.30
2019-02-25T00:06:48.747Z,5.30
2019-02-25T00:09:16.581Z,5.50
2019-02-25T00:11:44.742Z,5.40
2019-02-25T00:14:12.539Z,5.40
2019-02-25T00:16:40.416Z,5.50
2019-02-25T00:19:08.274Z,5.50
2019-02-25T00:21:36.045Z,5.40
2019-02-25T00:24:04.100Z,5.30
2019-02-25T00:26:31.975Z,5.30
2019-02-25T00:28:59.764Z,5.30
2019-02-25T00:31:27.607Z,5.20
2019-02-25T00:33:55.662Z,5.10
2019-02-25T00:36:23.456Z,5.10
2019-02-25T00:38:51.577Z,5.00
2019-02-25T00:41:19.392Z,4.90
2019-02-25T00:43:47.266Z,4.90
2019-02-25T00:46:15.059Z,4.90
2019-02-25T00:48:42.899Z,5.00
2019-02-25T00:51:10.752Z,5.00
2019-02-25T00:53:38.643Z,5.00
2019-02-25T00:56:06.487Z,4.90
2019-02-25T00:58:34.387Z,4.90
2019-02-25T01:01:02.215Z,4.80
2019-02-25T01:03:30.103Z,4.90
2019-02-25T01:05:58.042Z,4.90
2019-02-25T01:08:25.857Z,5.00
2019-02-25T01:10:53.684Z,5.00
2019-02-25T01:13:21.574Z,5.00
2019-02-25T01:15:49.427Z,5.00
2019-02-25T01:18:17.312Z,4.90
2019-02-25T01:20:45.154Z,4.90
2019-02-25T01:23:12.947Z,4.80
2019-02-25T01:25:40.804Z,4.80
2019-02-25T01:28:08.671Z,4.80
2019-02-25T01:30:36.535Z,4.70
2019-02-25T01:33:04.437Z,4.60
2019-02-25T01:35:32.262Z,4.60
2019-02-25T01:38:00.547Z,4.50
2019-02-25T01:40:28.407Z,4.50
2019-02-25T01:42:56.296Z,4.50
2019-02-25T01:45:24.138Z,4.50
2019-02-25T01:47:52.019Z,4.40
2019-02-25T01:50:20.379Z,4.30
2019-02-25T01:52:48.266Z,4.30
2019-02-25T01:55:16.396Z,4.30
2019-02-25T01:57:44.271Z,4.30
2019-02-25T02:00:12.944Z,4.20
2019-02-25T02:02:40.792Z,4.30
2019-02-25T02:05:08.711Z,4.40
2019-02-25T02:07:36.584Z,4.50
2019-02-25T02:10:04.753Z,4.50
2019-02-25T02:12:32.525Z,4.50
2019-02-25T02:15:00.400Z,4.50
2019-02-25T02:17:29.095Z,4.40
2019-02-25T02:19:56.874Z,4.40
2019-02-25T02:22:24.643Z,4.30
2019-02-25T02:24:52.495Z,4.30
2019-02-25T02:27:20.340Z,4.40
2019-02-25T02:29:48.297Z,4.40
2019-02-25T02:32:16.159Z,4.30
2019-02-25T02:34:43.955Z,4.30
2019-02-25T02:37:11.947Z,4.30
2019-02-25T02:39:39.739Z,4.40
2019-02-25T02:42:14.513Z,4.50
2019-02-25T02:44:42.561Z,4.50
2019-02-25T02:47:15.828Z,4.40
2019-02-25T02:49:43.651Z,4.40
2019-02-25T02:52:11.432Z,4.40
2019-02-25T02:54:39.219Z,4.50
2019-02-25T02:57:07.045Z,4.50
2019-02-25T02:59:34.924Z,4.50
2019-02-25T03:02:02.771Z,4.40
2019-02-25T03:04:30.703Z,4.40
2019-02-25T03:06:58.504Z,4.30
2019-02-25T03:09:26.370Z,4.30
2019-02-25T03:11:54.135Z,4.20
2019-02-25T03:14:22.034Z,4.20
2019-02-25T03:16:49.882Z,4.20
2019-02-25T03:19:17.756Z,4.20
2019-02-25T03:21:45.617Z,4.10
2019-02-25T03:24:13.501Z,4.10
2019-02-25T03:26:41.716Z,4.00
2019-02-25T03:29:09.536Z,4.00
2019-02-25T03:31:37.681Z,4.00
2019-02-25T03:34:05.560Z,4.00
2019-02-25T03:36:33.336Z,3.90
2019-02-25T03:39:01.190Z,3.90
2019-02-25T03:41:29.109Z,3.90
2019-02-25T03:43:56.932Z,3.90
2019-02-25T03:46:25.083Z,3.90
2019-02-25T03:48:52.861Z,4.00
2019-02-25T03:51:20.766Z,4.10
2019-02-25T03:53:48.665Z,4.20
2019-02-25T03:56:16.451Z,4.20
2019-02-25T03:58:44.301Z,4.10
2019-02-25T04:01:12.082Z,4.10
2019-02-25T04:03:39.855Z,4.10
2019-02-25T04:06:07.642Z,4.00
2019-02-25T04:08:35.421Z,3.90
2019-02-25T04:11:03.291Z,3.90
2019-02-25T04:13:31.113Z,3.80
2019-02-25T04:15:58.921Z,3.70
2019-02-25T04:18:26.753Z,3.60
2019-02-25T04:20:54.651Z,3.60
2019-02-25T04:23:22.423Z,3.50
2019-02-25T04:25:50.236Z,3.50
2019-02-25T04:28:18.024Z,3.50
2019-02-25T04:30:45.797Z,3.50
2019-02-25T04:33:13.631Z,3.40
2019-02-25T04:35:41.445Z,3.30
2019-02-25T04:38:09.201Z,3.30
2019-02-25T04:40:36.981Z,3.20
2019-02-25T04:43:04.751Z,3.20
2019-02-25T04:45:32.608Z,3.20
2019-02-25T04:48:00.455Z,3.20
2019-02-25T04:50:28.226Z,3.10
2019-02-25T04:52:56.179Z,3.10
2019-02-25T04:55:23.978Z,3.20
2019-02-25T04:57:51.749Z,3.10
2019-02-25T05:00:19.645Z,3.10
2019-02-25T05:02:47.461Z,3.10
2019-02-25T05:05:15.352Z,3.10
2019-02-25T05:07:43.198Z,3.20
2019-02-25T05:10:11.610Z,3.20
2019-02-25T05:12:41.134Z,3.10
2019-02-25T05:15:10.342Z,3.00
2019-02-25T05:17:38.147Z,3.00
2019-02-25T05:20:05.964Z,3.00
2019-02-25T05:22:34.090Z,3.00
2019-02-25T05:25:01.863Z,3.10
2019-02-25T05:27:29.651Z,3.10
2019-02-25T05:29:57.479Z,3.10
2019-02-25T05:32:25.384Z,3.10
2019-02-25T05:34:53.156Z,3.10
2019-02-25T05:37:20.996Z,3.10
2019-02-25T05:39:49.130Z,3.00
2019-02-25T05:42:16.915Z,2.90
2019-02-25T05:44:44.685Z,2.90
2019-02-25T05:47:12.565Z,2.90
2019-02-25T05:49:40.349Z,2.90
2019-02-25T05:52:08.134Z,2.90
2019-02-25T05:54:35.918Z,2.90
2019-02-25T05:57:03.998Z,2.90
2019-02-25T05:59:31.762Z,2.90
2019-02-25T06:01:59.564Z,2.90
2019-02-25T06:04:27.405Z,2.90
2019-02-25T06:06:55.230Z,2.80
2019-02-25T06:09:23.035Z,2.80
2019-02-25T06:11:50.824Z,2.80
2019-02-25T06:14:18.687Z,2.80
2019-02-25T06:16:46.466Z,2.80
2019-02-25T06:19:14.313Z,3.00
2019-02-25T06:21:42.216Z,3.10
2019-02-25T06:24:10.036Z,3.10
2019-02-25T06:26:38.716Z,3.10
2019-02-25T06:29:06.683Z,3.20
2019-02-25T06:31:34.479Z,3.20
2019-02-25T06:34:02.447Z,3.30
2019-02-25T06:36:30.323Z,3.30
2019-02-25T06:38:58.167Z,3.30
2019-02-25T06:41:26.295Z,3.40
2019-02-25T06:43:54.070Z,3.40
2019-02-25T06:46:21.884Z,3.50
2019-02-25T06:48:49.821Z,3.50
2019-02-25T06:51:17.644Z,3.50
2019-02-25T06:53:45.452Z,3.60
2019-02-25T06:56:13.263Z,3.70
2019-02-25T06:58:41.111Z,3.70
2019-02-25T07:01:08.907Z,3.70
2019-02-25T07:03:36.747Z,3.80
2019-02-25T07:06:21.295Z,3.80
2019-02-25T07:08:56.717Z,3.90
2019-02-25T07:11:45.348Z,3.90
2019-02-25T07:14:40.224Z,3.90
2019-02-25T07:17:25.268Z,4.00
2019-02-25T07:20:08.787Z,4.10
2019-02-25T07:22:45.106Z,4.20
2019-02-25T07:25:22.700Z,4.20
2019-02-25T07:28:15.459Z,4.30
2019-02-25T07:30:55.154Z,4.40
2019-02-25T07:33:47.957Z,4.40
2019-02-25T07:36:27.604Z,4.50
2019-02-25T07:39:05.708Z,4.50
2019-02-25T07:41:55.621Z,4.60
2019-02-25T07:44:29.067Z,4.60
2019-02-25T07:47:16.227Z,4.70
2019-02-25T07:49:59.620Z,4.70
2019-02-25T07:52:45.565Z,4.80
2019-02-25T07:55:29.483Z,4.90
2019-02-25T07:58:08.397Z,5.00
2019-02-25T08:00:47.115Z,5.00
2019-02-25T08:03:34.111Z,5.20
2019-02-25T08:06:12.046Z,5.30
2019-02-25T08:08:59.061Z,5.30
2019-02-25T08:11:36.148Z,5.30
2019-02-25T08:14:13.714Z,5.40
2019-02-25T08:16:59.983Z,5.40
2019-02-25T08:19:47.070Z,5.40
2019-02-25T08:22:30.030Z,5.40
2019-02-25T08:25:15.711Z,5.50
2019-02-25T08:27:57.555Z,5.50
2019-02-25T08:30:41.488Z,5.70
2019-02-25T08:33:28.497Z,5.80
2019-02-25T08:36:43.739Z,5.90
2019-02-25T08:39:21.884Z,6.00
2019-02-25T08:42:02.263Z,6.10
2019-02-25T08:44:41.170Z,6.10
2019-02-25T08:47:13.672Z,6.20
2019-02-25T08:49:47.441Z,6.30
2019-02-25T08:52:15.286Z,6.30
2019-02-25T08:54:43.066Z,6.40
2019-02-25T08:57:10.854Z,6.40
2019-02-25T08:59:38.630Z,6.50
2019-02-25T09:02:06.465Z,6.50
2019-02-25T09:04:34.249Z,6.70
2019-02-25T09:07:02.018Z,6.80
2019-02-25T09:09:30.053Z,6.90
2019-02-25T09:11:57.844Z,6.90
2019-02-25T09:14:25.618Z,7.00
2019-02-25T09:16:53.400Z,7.20
2019-02-25T09:19:21.195Z,7.40
2019-02-25T09:21:48.958Z,7.60
2019-02-25T09:24:16.764Z,7.80
2019-02-25T09:26:44.549Z,7.90
2019-02-25T09:29:12.351Z,8.00
2019-02-25T09:31:40.133Z,8.10
2019-02-25T09:34:07.919Z,8.10
2019-02-25T09:36:35.849Z,8.20
2019-02-25T09:39:04.609Z,8.20
2019-02-25T09:41:32.388Z,8.20
2019-02-25T09:44:00.167Z,8.30
2019-02-25T09:46:27.930Z,8.30
2019-02-25T09:48:55.735Z,8.40
2019-02-25T09:51:23.494Z,8.40
2019-02-25T09:53:51.292Z,8.60
2019-02-25T09:56:19.071Z,8.60
2019-02-25T09:58:47.184Z,8.70
2019-02-25T10:01:14.966Z,8.80
2019-02-25T10:03:42.758Z,8.80
2019-02-25T10:06:12.713Z,9.00
2019-02-25T10:08:40.039Z,9.00
2019-02-25T10:11:07.815Z,9.10
2019-02-25T10:13:35.608Z,9.20
2019-02-25T10:16:03.377Z,9.40
2019-02-25T10:18:31.150Z,9.40
2019-02-25T10:20:58.923Z,9.50
2019-02-25T10:23:26.707Z,9.70
2019-02-25T10:25:54.544Z,9.60
2019-02-25T10:28:22.318Z,9.70
2019-02-25T10:30:52.824Z,9.80
2019-02-25T10:33:19.924Z,9.80
2019-02-25T10:35:47.689Z,10.00
2019-02-25T10:38:15.464Z,10.10
2019-02-25T10:40:44.936Z,10.20
2019-02-25T10:43:12.779Z,10.20
2019-02-25T10:45:41.178Z,10.40
2019-02-25T10:48:10.107Z,10.40
2019-02-25T10:50:38.683Z,10.50
2019-02-25T10:53:07.471Z,10.60
2019-02-25T10:55:37.019Z,10.60
2019-02-25T10:58:05.263Z,10.60
2019-02-25T11:00:34.774Z,10.70
2019-02-25T11:03:02.758Z,10.80
2019-02-25T11:05:30.784Z,10.80
2019-02-25T11:07:59.207Z,10.70
2019-02-25T11:10:31.526Z,10.70
2019-02-25T11:13:00.301Z,10.80
2019-02-25T11:15:29.776Z,10.80
2019-02-25T11:17:57.636Z,10.90
2019-02-25T11:20:27.211Z,11.00
2019-02-25T11:22:54.936Z,11.10
2019-02-25T11:25:24.065Z,11.30
2019-02-25T11:27:52.238Z,11.40
2019-02-25T11:30:21.500Z,11.30
2019-02-25T11:32:51.243Z,11.30
2019-02-25T11:37:46.737Z,11.40
2019-02-25T11:40:14.756Z,11.50
2019-02-25T11:42:42.532Z,11.50
2019-02-25T11:45:10.736Z,11.60
2019-02-25T11:47:38.823Z,11.70
2019-02-25T16:13:53.546Z,12.80
2019-02-25T16:16:21.452Z,12.70
2019-02-25T16:18:49.520Z,12.60
2019-02-25T16:21:17.291Z,12.50
2019-02-25T16:23:45.447Z,12.40
2019-02-25T16:26:15.194Z,12.40
2019-02-25T16:28:43.002Z,12.30
2019-02-25T16:31:12.281Z,12.30
2019-02-25T16:33:40.304Z,12.20
2019-02-25T16:36:09.915Z,12.10
2019-02-25T16:38:37.653Z,12.10
2019-02-25T16:41:07.840Z,12.00
2019-02-25T16:43:35.226Z,11.90
2019-02-25T16:46:06.180Z,11.90
2019-02-25T16:48:32.712Z,11.80
2019-02-25T16:51:02.538Z,11.70
2019-02-25T16:53:34.649Z,11.70
2019-02-25T16:55:59.688Z,11.60
2019-02-25T16:58:29.347Z,11.40
2019-02-25T17:00:58.541Z,11.40
2019-02-25T17:03:26.785Z,11.40
2019-02-25T17:05:54.817Z,11.40
2019-02-25T17:08:24.010Z,11.40
2019-02-25T17:10:53.979Z,11.30
2019-02-25T17:13:21.843Z,11.20
2019-02-25T17:15:49.694Z,11.10
2019-02-25T17:18:17.555Z,11.10
2019-02-25T17:20:49.413Z,11.10
2019-02-25T17:23:14.918Z,11.10
2019-02-25T17:25:43.605Z,11.00
2019-02-25T17:28:14.784Z,11.00
2019-02-25T17:30:42.905Z,11.10
2019-02-25T17:33:12.238Z,11.10
2019-02-25T17:35:40.711Z,11.10
2019-02-25T17:38:08.500Z,11.00
2019-02-25T17:40:36.413Z,11.00
2019-02-25T17:43:04.791Z,11.00
2019-02-25T17:45:36.261Z,11.00
2019-02-25T17:48:05.381Z,10.90
2019-02-25T17:50:32.938Z,10.90
2019-02-25T17:53:02.750Z,10.90
2019-02-25T17:55:31.723Z,10.90
2019-02-25T17:58:01.027Z,10.90
2019-02-25T18:00:35.009Z,10.80
2019-02-25T18:03:03.666Z,10.80
2019-02-25T18:05:33.479Z,10.80
2019-02-25T18:08:02.908Z,10.70
2019-02-25T18:10:31.441Z,10.80
2019-02-25T18:13:01.149Z,10.70
2019-02-25T18:15:30.086Z,10.80
2019-02-25T18:17:58.349Z,10.80
2019-02-25T18:20:26.527Z,10.80
2019-02-25T18:22:54.404Z,10.80
2019-02-25T18:25:22.255Z,10.70
2019-02-25T18:27:50.497Z,10.70
2019-02-25T18:30:20.623Z,10.70
2019-02-25T18:32:50.407Z,10.60
2019-02-25T18:35:20.545Z,10.60
2019-02-25T18:37:48.304Z,10.60
2019-02-25T18:40:18.455Z,10.50
2019-02-25T18:42:46.474Z,10.50
2019-02-25T18:45:16.008Z,10.50
2019-02-25T18:47:44.504Z,10.40
2019-02-25T18:50:17.284Z,10.30
2019-02-25T18:52:43.620Z,10.30
2019-02-25T18:55:11.879Z,10.30
2019-02-25T18:57:41.372Z,10.20
2019-02-25T19:00:12.304Z,10.20
2019-02-25T19:02:41.877Z,10.20
2019-02-25T19:05:13.165Z,10.10
2019-02-25T19:07:39.677Z,10.10
2019-02-25T19:10:07.480Z,10.10
2019-02-25T19:12:35.438Z,10.10
2019-02-25T19:15:05.008Z,10.10
2019-02-25T19:17:33.379Z,10.00
2019-02-25T19:20:01.913Z,10.00
2019-02-25T19:22:33.419Z,10.00
2019-02-25T19:25:01.705Z,10.00
2019-02-25T19:27:31.455Z,10.00
2019-02-25T19:30:00.714Z,10.00
2019-02-25T19:32:28.927Z,10.00
2019-02-25T19:34:58.390Z,9.90
2019-02-25T19:37:32.915Z,9.90
2019-02-25T19:39:59.084Z,9.90
2019-02-25T19:42:29.045Z,9.80
2019-02-25T19:44:58.347Z,9.80
2019-02-25T19:47:26.311Z,9.80
2019-02-25T19:49:54.199Z,9.80
2019-02-25T19:52:22.302Z,9.80
2019-02-25T19:54:50.681Z,9.80
2019-02-25T19:57:20.986Z,9.80
2019-02-25T19:59:50.490Z,9.70
2019-02-25T20:02:17.920Z,9.70
2019-02-25T20:04:49.492Z,9.60
2019-02-25T20:07:15.993Z,9.60
2019-02-25T20:09:44.901Z,9.50
2019-02-25T20:12:12.768Z,9.40
2019-02-25T20:14:42.522Z,9.40
2019-02-25T20:17:10.236Z,9.30
2019-02-25T20:19:39.274Z,9.30
2019-02-25T20:22:09.541Z,9.30
2019-02-25T20:24:40.256Z,9.20
2019-02-25T20:27:07.280Z,9.20
2019-02-25T20:29:36.036Z,9.20
2019-02-25T20:32:05.499Z,9.20
2019-02-25T20:34:34.774Z,9.10
2019-02-25T20:37:03.942Z,9.10
2019-02-25T20:39:33.659Z,9.00
2019-02-25T20:42:01.547Z,9.00
2019-02-25T20:44:30.677Z,9.00
2019-02-25T20:47:00.109Z,8.90
2019-02-25T20:49:31.679Z,8.90
2019-02-25T20:52:01.139Z,8.90
2019-02-25T20:54:28.181Z,8.90
2019-02-25T20:56:56.422Z,8.80
2019-02-25T20:59:25.875Z,8.80
2019-02-25T21:01:54.308Z,8.70
2019-02-25T21:04:22.359Z,8.60
2019-02-25T21:06:50.286Z,8.60
2019-02-25T21:09:18.131Z,8.60
2019-02-25T21:11:45.999Z,8.60
2019-02-25T21:14:13.840Z,8.60
2019-02-25T21:16:41.735Z,8.60
2019-02-25T21:19:10.961Z,8.60
2019-02-25T21:21:39.236Z,8.50
2019-02-25T21:24:08.738Z,8.60
2019-02-25T21:26:38.623Z,8.50
2019-02-25T21:29:06.984Z,8.50
2019-02-25T21:31:35.713Z,8.50
2019-02-25T21:34:03.596Z,8.50
2019-02-25T21:36:33.517Z,8.50
2019-02-25T21:39:01.162Z,8.50
2019-02-25T21:41:28.986Z,8.40
2019-02-25T21:43:59.082Z,8.30
2019-02-25T21:46:28.525Z,8.30
2019-02-25T21:48:57.221Z,8.30
2019-02-25T21:51:28.046Z,8.40
2019-02-25T21:53:55.945Z,8.40
2019-02-25T21:56:25.320Z,8.40
2019-02-25T21:58:54.291Z,8.40
2019-02-25T22:01:22.182Z,8.40
2019-02-25T22:03:52.457Z,8.30
2019-02-25T22:06:22.208Z,8.30
2019-02-25T22:08:52.085Z,8.30
2019-02-25T22:11:20.351Z,8.30
2019-02-25T22:13:49.087Z,8.20
2019-02-25T22:16:16.958Z,8.20
2019-02-25T22:18:44.815Z,8.20
2019-02-25T22:21:14.142Z,8.20
2019-02-25T22:23:42.595Z,8.10
2019-02-25T22:26:10.507Z,8.10
2019-02-25T22:28:39.435Z,8.10
2019-02-25T22:31:10.350Z,8.10
2019-02-25T22:33:36.937Z,8.10
2019-02-25T22:36:05.022Z,8.00
2019-02-25T22:38:32.875Z,8.00
2019-02-25T22:41:02.311Z,7.90
2019-02-25T22:43:30.337Z,7.90
2019-02-25T22:46:00.165Z,7.90
2019-02-25T22:48:27.847Z,7.80
2019-02-25T22:50:57.765Z,7.80
2019-02-25T22:53:25.608Z,7.70
2019-02-25T22:55:54.735Z,7.70
2019-02-25T22:58:22.675Z,7.70
2019-02-25T23:00:51.871Z,7.70
2019-02-25T23:03:22.573Z,7.70
2019-02-25T23:05:50.859Z,7.60
2019-02-25T23:08:20.903Z,7.60
2019-02-25T23:10:49.343Z,7.60
2019-02-25T23:13:20.011Z,7.50
2019-02-25T23:15:49.443Z,7.50
2019-02-25T23:18:19.989Z,7.50
2019-02-25T23:20:47.289Z,7.50
2019-02-25T23:23:15.186Z,7.50
2019-02-25T23:25:43.051Z,7.50
2019-02-25T23:28:10.919Z,7.40
2019-02-25T23:30:39.673Z,7.30
2019-02-25T23:33:09.873Z,7.20
2019-02-25T23:35:40.811Z,7.20
2019-02-25T23:38:07.104Z,7.20
2019-02-25T23:40:36.009Z,7.30
2019-02-25T23:43:07.086Z,7.30
2019-02-25T23:45:36.170Z,7.30
2019-02-25T23:48:06.133Z,7.30
2019-02-25T23:50:34.486Z,7.30
2019-02-25T23:53:03.343Z,7.30
2019-02-25T23:55:31.171Z,7.30
2019-02-25T23:57:59.050Z,7.40
